Time;durP1;ratioP1;P1;durP2;ratioP2;P2;SDS_P1;SDS_P2;PMS_P1;PMS_P2;Temp;Humidity;BMP_temperature;BMP_pressure;BME280_temperature;BME280_humidity;BME280_pressure;Samples;Min_cycle;Max_cycle;Signal;HPM_P1;HPM_P2
2020/12/22 00:01:40;;;;;;;35.08;9.48;;;4.60;84.90;;;3.69;69.07;95272.38;5057603;28;20222;-79
2020/12/22 00:04:07;;;;;;;33.55;9.57;;;4.60;84.90;;;3.71;69.26;95267.03;5090277;28;20222;-79
2020/12/22 00:06:34;;;;;;;33.75;9.25;;;4.60;85.00;;;3.69;69.11;95262.81;5084774;28;20195;-79
2020/12/22 00:09:01;;;;;;;26.13;10.32;;;4.60;84.90;;;3.72;69.38;95271.28;5074246;28;20215;-78
2020/12/22 00:11:28;;;;;;;37.53;8.70;;;4.60;85.00;;;3.73;69.24;95276.31;5070295;28;20200;-79
2020/12/22 00:13:54;;;;;;;29.27;9.15;;;4.60;85.00;;;3.75;69.38;95270.97;5037694;28;20199;-79
2020/12/22 00:16:21;;;;;;;56.10;10.48;;;4.60;85.00;;;3.75;68.86;95274.41;5040178;28;20572;-79
2020/12/22 00:18:48;;;;;;;41.00;9.75;;;4.60;85.00;;;3.74;69.32;95267.56;5073304;28;20199;-79
2020/12/22 00:21:19;;;;;;;36.28;9.13;;;4.60;85.00;;;3.75;69.14;95273.56;5090292;28;20232;-79
2020/12/22 00:23:46;;;;;;;46.53;9.82;;;4.60;85.00;;;3.77;69.18;95282.88;5070143;28;20225;-78
2020/12/22 00:26:17;;;;;;;42.03;10.30;;;4.60;85.00;;;3.77;69.14;95271.66;5053802;28;20242;-78
2020/12/22 00:28:44;;;;;;;44.85;9.38;;;4.60;85.00;;;3.78;69.17;95281.09;5054719;28;20210;-79
2020/12/22 00:31:11;;;;;;;33.05;9.23;;;4.60;85.00;;;3.79;69.26;95280.94;5061155;28;20202;-78
2020/12/22 00:33:37;;;;;;;39.80;10.00;;;4.60;85.00;;;3.74;68.78;95271.97;5060455;28;20260;-80
2020/12/22 00:36:08;;;;;;;41.38;8.82;;;4.70;85.10;;;3.73;68.85;95272.91;5077408;28;20216;-79
2020/12/22 00:38:35;;;;;;;64.63;10.10;;;4.60;85.00;;;3.75;69.21;95282.19;5077787;28;20404;-79
2020/12/22 00:41:03;;;;;;;82.97;10.80;;;4.70;85.00;;;3.77;68.91;95285.47;5060615;28;20214;-79
2020/12/22 00:43:30;;;;;;;48.78;9.32;;;4.70;85.00;;;3.76;69.05;95294.19;5060743;28;20573;-78
2020/12/22 00:45:58;;;;;;;40.75;9.30;;;4.70;85.00;;;3.73;69.11;95275.50;5077184;28;20287;-79
2020/12/22 00:48:28;;;;;;;44.38;9.38;;;4.70;85.00;;;3.75;68.98;95276.16;5087440;28;20668;-78
2020/12/22 00:50:55;;;;;;;38.33;8.77;;;4.60;84.90;;;3.75;69.20;95283.94;5061225;28;20254;-79
2020/12/22 00:53:22;;;;;;;41.97;8.68;;;4.70;85.00;;;3.75;69.10;95277.00;5077499;28;20191;-79
2020/12/22 00:55:49;;;;;;;49.25;8.63;;;4.60;85.00;;;3.76;69.11;95276.03;5073385;28;20219;-79
2020/12/22 00:58:17;;;;;;;37.70;9.65;;;4.60;84.90;;;3.72;68.92;95268.69;5064057;28;20205;-80
2020/12/22 01:00:45;;;;;;;38.83;9.32;;;4.60;85.00;;;3.75;68.92;95271.81;5060258;28;20716;-77
2020/12/22 01:03:12;;;;;;;66.03;10.02;;;4.60;84.90;;;3.76;69.11;95265.66;5076592;28;20279;-78
2020/12/22 01:05:39;;;;;;;48.20;9.43;;;4.60;85.00;;;3.75;68.98;95263.19;5076435;28;20691;-79
2020/12/22 01:08:06;;;;;;;51.63;9.68;;;4.60;85.00;;;3.75;69.14;95258.84;5077092;28;20209;-79
2020/12/22 01:10:33;;;;;;;40.50;8.82;;;4.60;84.90;;;3.74;69.34;95259.78;5076672;28;20222;-78
2020/12/22 01:12:59;;;;;;;39.13;8.70;;;4.60;84.90;;;3.71;69.01;95261.84;5076551;28;20645;-79
2020/12/22 01:15:26;;;;;;;63.67;9.75;;;4.60;84.90;;;3.74;69.14;95272.75;5076879;28;20214;-78
2020/12/22 01:17:54;;;;;;;70.13;9.18;;;4.60;84.90;;;3.72;68.99;95269.47;5093506;28;20645;-78
2020/12/22 01:20:21;;;;;;;48.65;9.57;;;4.60;84.90;;;3.71;69.41;95264.44;5091528;28;20305;-78
2020/12/22 01:22:48;;;;;;;65.43;8.75;;;4.60;84.90;;;3.71;69.06;95269.63;5076654;28;20223;-78
2020/12/22 01:25:14;;;;;;;56.03;9.25;;;4.60;84.90;;;3.69;69.30;95260.22;5076794;28;20210;-79
2020/12/22 01:27:42;;;;;;;53.20;9.48;;;4.60;84.90;;;3.69;68.75;95254.22;5077084;28;20190;-79
2020/12/22 01:30:09;;;;;;;64.50;9.27;;;4.60;84.90;;;3.68;69.00;95258.56;5076586;28;20577;-78
2020/12/22 01:32:36;;;;;;;42.25;9.00;;;4.60;84.90;;;3.63;69.52;95260.78;5073041;28;20219;-79
2020/12/22 01:35:04;;;;;;;57.05;8.52;;;4.60;84.90;;;3.67;68.98;95263.91;5056200;28;20258;-79
2020/12/22 01:37:32;;;;;;;48.45;9.85;;;4.60;84.90;;;3.66;69.27;95264.84;5056528;28;20192;-78
2020/12/22 01:39:58;;;;;;;51.88;9.63;;;4.60;84.90;;;3.64;69.22;95265.00;5084187;28;20215;-79
2020/12/22 01:42:25;;;;;;;40.65;8.57;;;4.60;84.90;;;3.66;69.50;95272.63;5059836;28;20211;-79
2020/12/22 01:44:52;;;;;;;50.25;10.35;;;4.60;85.00;;;3.67;69.35;95254.34;5075993;28;20226;-78
2020/12/22 01:47:20;;;;;;;65.25;10.48;;;4.60;85.00;;;3.65;69.05;95255.44;5075916;28;20248;-78
2020/12/22 01:49:47;;;;;;;33.42;8.55;;;4.60;85.00;;;3.65;69.22;95256.28;5076094;28;20246;-78
2020/12/22 01:52:14;;;;;;;34.90;8.80;;;4.50;84.90;;;3.64;69.14;95256.41;5093174;28;20297;-79
2020/12/22 01:54:42;;;;;;;48.25;9.20;;;4.50;84.90;;;3.66;68.85;95264.84;5088785;28;20685;-79
2020/12/22 01:57:14;;;;;;;35.83;8.68;;;4.50;84.90;;;3.68;68.90;95273.31;5075292;28;20234;-79
2020/12/22 01:59:40;;;;;;;41.47;8.85;;;4.50;85.00;;;3.68;69.26;95273.31;5076435;28;20222;-78
2020/12/22 02:02:07;;;;;;;53.80;8.35;;;4.60;85.10;;;3.68;69.25;95262.94;5071625;28;20282;-79
2020/12/22 02:04:36;;;;;;;45.88;9.77;;;4.50;84.90;;;3.64;69.35;95254.63;5088568;28;20228;-79
2020/12/22 02:07:03;;;;;;;37.58;9.73;;;4.50;85.00;;;3.60;68.85;95248.09;5059479;28;20286;-79
2020/12/22 02:09:30;;;;;;;39.90;9.05;;;4.50;84.90;;;3.66;69.43;95255.31;5075289;28;20222;-79
2020/12/22 02:11:57;;;;;;;46.70;8.85;;;4.50;84.90;;;3.61;69.31;95246.31;5065297;28;20309;-78
2020/12/22 02:14:24;;;;;;;44.33;7.68;;;4.50;85.00;;;3.69;69.09;95259.41;5089176;28;20214;-78
2020/12/22 02:16:51;;;;;;;53.22;8.60;;;4.50;85.00;;;3.67;69.22;95251.78;5054688;28;20252;-79
2020/12/22 02:19:23;;;;;;;33.47;9.25;;;4.50;85.00;;;3.66;69.36;95239.75;5068519;28;20712;-79
2020/12/22 02:21:50;;;;;;;33.22;8.60;;;4.50;85.00;;;3.64;69.28;95226.09;5083703;28;20247;-78
2020/12/22 02:24:17;;;;;;;45.40;8.73;;;4.50;84.90;;;3.65;69.25;95216.53;5054905;28;20230;-78
2020/12/22 02:26:45;;;;;;;39.67;8.55;;;4.60;85.00;;;3.65;68.97;95216.53;5067126;28;20285;-77
2020/12/22 02:29:11;;;;;;;41.20;8.90;;;4.50;85.00;;;3.62;69.08;95206.44;5065456;28;20223;-78
2020/12/22 02:31:39;;;;;;;41.13;8.43;;;4.50;85.00;;;3.67;69.20;95212.03;5082400;28;20710;-78
2020/12/22 02:34:06;;;;;;;49.53;9.15;;;4.50;85.00;;;3.68;69.44;95193.72;5067941;28;20691;-78
2020/12/22 02:36:33;;;;;;;56.58;9.45;;;4.50;85.00;;;3.67;68.98;95191.28;5071408;28;20277;-77
2020/12/22 02:39:00;;;;;;;45.47;8.73;;;4.60;85.00;;;3.67;69.34;95186.91;5070134;28;20223;-79
2020/12/22 02:41:28;;;;;;;35.35;8.75;;;4.50;85.00;;;3.67;69.11;95193.88;5084786;28;20275;-77
2020/12/22 02:43:54;;;;;;;42.25;9.05;;;4.50;85.00;;;3.65;68.93;95206.97;5069491;28;20314;-77
2020/12/22 02:46:22;;;;;;;35.40;8.63;;;4.50;85.00;;;3.66;69.65;95202.59;5072750;28;20232;-78
2020/12/22 02:48:48;;;;;;;48.83;9.57;;;4.60;85.00;;;3.66;69.30;95206.03;5084909;28;20221;-77
2020/12/22 02:51:17;;;;;;;41.95;8.18;;;4.50;85.00;;;3.66;69.09;95207.78;5084310;28;20206;-78
2020/12/22 02:53:44;;;;;;;35.05;8.23;;;4.50;85.00;;;3.67;69.00;95212.03;5085677;28;20276;-78
2020/12/22 02:56:10;;;;;;;33.22;8.15;;;4.50;85.00;;;3.66;69.38;95198.25;5070661;28;20668;-77
2020/12/22 02:58:37;;;;;;;30.52;7.88;;;4.50;85.00;;;3.69;69.30;95197.16;5069514;28;20207;-77
2020/12/22 03:01:07;;;;;;;37.00;8.43;;;4.50;85.10;;;3.68;69.35;95196.31;5070976;28;20202;-78
2020/12/22 03:03:33;;;;;;;40.90;8.73;;;4.60;85.10;;;3.68;69.32;95187.72;5067954;28;20222;-78
2020/12/22 03:06:00;;;;;;;27.45;8.32;;;4.60;85.80;;;3.69;69.07;95200.53;5050994;28;20206;-77
2020/12/22 03:08:27;;;;;;;40.00;7.88;;;4.60;85.00;;;3.66;69.20;95190.47;5072323;28;20210;-78
2020/12/22 03:10:54;;;;;;;26.23;7.90;;;4.60;85.00;;;3.64;69.23;95186.38;5070715;28;20635;-77
2020/12/22 03:13:21;;;;;;;30.75;8.02;;;4.60;85.00;;;3.66;69.11;95190.47;5083801;28;20660;-77
2020/12/22 03:15:48;;;;;;;36.50;8.68;;;4.60;85.00;;;3.68;69.10;95190.31;5072369;28;20309;-77
2020/12/22 03:18:18;;;;;;;30.55;7.95;;;4.60;85.00;;;3.69;69.18;95176.38;5068892;28;20221;-78
2020/12/22 03:20:46;;;;;;;37.03;9.05;;;4.70;85.10;;;3.67;69.69;95189.50;5066164;28;20225;-77
2020/12/22 03:23:14;;;;;;;37.28;8.65;;;4.60;85.00;;;3.69;68.99;95187.56;5054115;28;20219;-77
2020/12/22 03:25:41;;;;;;;35.58;7.72;;;4.50;84.90;;;3.66;69.24;95177.50;5051981;28;20711;-78
2020/12/22 03:28:08;;;;;;;32.88;8.23;;;4.60;85.00;;;3.68;69.19;95174.75;5071615;28;20637;-78
2020/12/22 03:30:35;;;;;;;37.40;9.32;;;4.60;85.00;;;3.68;69.24;95175.56;5053104;28;20313;-77
2020/12/22 03:33:02;;;;;;;28.20;8.20;;;4.50;85.00;;;3.70;69.17;95178.03;5095072;28;20685;-78
2020/12/22 03:35:30;;;;;;;32.97;7.28;;;4.60;85.00;;;3.67;69.21;95175.72;5082556;28;20213;-78
2020/12/22 03:37:58;;;;;;;32.65;8.52;;;4.60;85.10;;;3.68;69.19;95179.94;5069744;28;20578;-77
2020/12/22 03:40:26;;;;;;;22.85;7.78;;;4.60;85.10;;;3.72;69.43;95180.47;5069598;28;20226;-78
2020/12/22 03:42:54;;;;;;;27.08;8.52;;;4.60;85.00;;;3.72;69.08;95180.47;5052722;28;20191;-78
2020/12/22 03:45:21;;;;;;;31.90;7.93;;;4.60;85.10;;;3.74;68.95;95171.59;5069032;28;20677;-79
2020/12/22 03:47:48;;;;;;;38.00;7.90;;;4.60;85.10;;;3.75;69.15;95164.59;5068760;28;20187;-78
2020/12/22 03:50:23;;;;;;;30.58;7.47;;;4.60;85.10;;;3.74;69.68;95156.03;5068784;28;20221;-78
2020/12/22 03:52:49;;;;;;;34.08;8.52;;;4.60;85.10;;;3.73;69.29;95156.16;5051531;28;20656;-78
2020/12/22 03:55:18;;;;;;;29.20;8.05;;;4.60;85.10;;;3.74;69.15;95150.03;5056395;28;20246;-78
2020/12/22 03:57:45;;;;;;;23.08;8.15;;;4.60;85.00;;;3.69;69.04;95148.66;5073363;28;20649;-78
2020/12/22 04:00:15;;;;;;;28.05;7.78;;;4.60;85.00;;;3.74;69.00;95153.44;5056787;28;20218;-78
2020/12/22 04:02:43;;;;;;;30.38;8.05;;;4.60;85.90;;;3.74;69.07;95156.03;5056875;28;20206;-78
2020/12/22 04:05:10;;;;;;;30.23;8.02;;;4.60;85.00;;;3.74;69.04;95153.44;5077401;28;20214;-78
2020/12/22 04:07:38;;;;;;;35.10;7.50;;;4.60;85.10;;;3.76;69.32;95148.91;5077953;28;20289;-78
2020/12/22 04:10:06;;;;;;;23.67;7.70;;;4.60;85.10;;;3.76;68.98;95145.50;5094206;28;20218;-78
2020/12/22 04:12:34;;;;;;;22.85;7.13;;;4.60;85.10;;;3.78;69.32;95140.97;5078184;28;20214;-78
2020/12/22 04:15:01;;;;;;;24.63;8.20;;;4.60;85.20;;;3.74;68.65;95140.44;5061552;28;20226;-78
2020/12/22 04:17:28;;;;;;;16.50;7.63;;;4.60;85.10;;;3.77;69.25;95142.78;5077453;28;20218;-78
2020/12/22 04:19:55;;;;;;;22.67;7.25;;;4.60;85.10;;;3.78;69.25;95135.78;5078091;28;20215;-78
2020/12/22 04:22:22;;;;;;;15.68;7.57;;;4.60;85.20;;;3.77;69.19;95129.81;5061320;28;20191;-78
2020/12/22 04:24:49;;;;;;;14.55;7.88;;;4.60;85.10;;;3.80;69.03;95133.88;5077896;28;20230;-78
2020/12/22 04:27:16;;;;;;;9.98;6.40;;;4.60;85.10;;;3.77;69.05;95128.97;5077313;28;20199;-79
2020/12/22 04:29:43;;;;;;;12.02;6.55;;;4.70;85.20;;;3.78;69.21;95128.00;5073724;28;20227;-78
2020/12/22 04:32:10;;;;;;;11.02;6.63;;;4.80;85.20;;;3.81;69.08;95125.94;5067965;28;20684;-78
2020/12/22 04:34:37;;;;;;;12.15;7.15;;;4.60;85.10;;;3.82;69.03;95121.56;5094697;28;20214;-78
2020/12/22 04:37:03;;;;;;;9.52;6.43;;;4.70;85.20;;;3.85;69.41;95135.06;5094226;28;20182;-78
2020/12/22 04:39:30;;;;;;;11.23;6.68;;;4.70;85.20;;;3.87;69.39;95145.31;5077559;28;20222;-78
2020/12/22 04:41:58;;;;;;;10.45;6.18;;;4.70;85.10;;;3.86;68.88;95151.47;5061033;28;20637;-79
2020/12/22 04:44:25;;;;;;;10.15;6.18;;;4.70;85.10;;;3.87;69.01;95152.28;5060894;28;20321;-78
2020/12/22 04:46:53;;;;;;;11.95;6.88;;;4.70;85.10;;;3.88;69.15;95148.72;5093905;28;20191;-79
2020/12/22 04:49:25;;;;;;;9.90;6.57;;;4.70;85.20;;;3.84;69.12;95145.59;5093961;28;20727;-79
2020/12/22 04:51:53;;;;;;;8.15;5.55;;;4.70;85.10;;;3.82;69.19;95140.56;5094289;28;20179;-79
2020/12/22 04:54:33;;;;;;;9.68;6.43;;;4.70;85.10;;;3.88;69.09;95146.13;5060382;28;20210;-78
2020/12/22 04:57:04;;;;;;;8.88;6.15;;;4.70;85.00;;;3.85;68.68;95132.47;5057287;28;20213;-78
2020/12/22 04:59:32;;;;;;;8.15;5.72;;;4.70;85.00;;;3.85;68.99;95119.50;5057479;28;20211;-78
2020/12/22 05:02:00;;;;;;;7.57;5.10;;;4.70;85.00;;;3.88;69.26;95127.97;5064370;28;20203;-79
2020/12/22 05:04:36;;;;;;;8.13;5.57;;;4.70;85.00;;;3.85;69.27;95121.28;5076600;28;20222;-78
2020/12/22 05:07:05;;;;;;;8.30;5.50;;;4.80;85.10;;;3.85;69.00;95095.34;5077294;28;20202;-78
2020/12/22 05:09:32;;;;;;;7.40;5.30;;;4.70;85.00;;;3.85;69.26;95090.97;5076392;28;20632;-78
2020/12/22 05:11:59;;;;;;;7.32;5.28;;;4.70;85.10;;;3.87;69.17;95093.44;5093399;28;20221;-78
2020/12/22 05:14:28;;;;;;;7.82;5.28;;;4.70;85.80;;;3.85;68.77;95116.91;5076331;28;20211;-79
2020/12/22 05:16:56;;;;;;;6.95;5.13;;;4.70;85.00;;;3.84;69.24;95119.66;5076665;28;20213;-79
2020/12/22 05:19:23;;;;;;;6.95;4.32;;;4.70;85.00;;;3.89;69.20;95119.22;5060339;28;20219;-78
2020/12/22 05:21:52;;;;;;;6.55;5.03;;;4.70;85.00;;;3.89;69.31;95114.03;5075911;28;20249;-78
2020/12/22 05:24:20;;;;;;;6.57;4.75;;;4.70;85.10;;;3.92;69.39;95116.31;5076987;28;20657;-77
2020/12/22 05:26:48;;;;;;;6.32;4.50;;;4.70;85.10;;;3.92;69.35;95086.00;5060168;28;20298;-79
2020/12/22 05:29:18;;;;;;;6.22;4.43;;;4.70;85.10;;;3.94;68.81;95088.44;5093431;28;20214;-78
2020/12/22 05:31:50;;;;;;;6.60;4.82;;;4.70;85.10;;;3.94;69.15;95070.28;5076223;28;20619;-78
2020/12/22 05:34:18;;;;;;;5.88;4.28;;;4.80;85.20;;;3.91;69.42;95071.41;5076926;28;20215;-78
2020/12/22 05:36:47;;;;;;;6.65;4.97;;;4.80;85.10;;;3.94;68.98;95068.53;5093420;28;20194;-78
2020/12/22 05:39:18;;;;;;;5.95;4.53;;;4.80;85.10;;;3.94;69.15;95071.13;5073530;28;20227;-78
2020/12/22 05:41:45;;;;;;;5.28;4.05;;;4.80;85.10;;;3.95;69.29;95090.91;5069644;28;20684;-78
2020/12/22 05:44:12;;;;;;;6.38;4.65;;;4.80;85.10;;;3.94;69.22;95093.66;5057171;28;20250;-78
2020/12/22 05:46:41;;;;;;;6.38;4.35;;;4.80;85.90;;;3.94;69.04;95078.91;5076154;28;20726;-77
2020/12/22 05:49:10;;;;;;;5.78;4.60;;;4.80;85.10;;;3.99;69.22;95061.09;5075891;28;20229;-78
2020/12/22 05:51:44;;;;;;;7.45;5.10;;;4.80;85.10;;;4.00;69.22;95061.91;5060182;28;20199;-78
2020/12/22 05:54:16;;;;;;;8.13;6.10;;;4.80;85.10;;;3.99;69.06;95052.50;5076016;28;20214;-79
2020/12/22 05:56:44;;;;;;;8.02;5.50;;;4.80;85.90;;;4.00;69.19;95051.53;5056426;28;20184;-78
2020/12/22 05:59:21;;;;;;;8.77;6.00;;;4.90;85.10;;;4.01;69.14;95064.34;5074865;28;20213;-78
2020/12/22 06:01:49;;;;;;;7.38;5.38;;;4.80;85.10;;;4.02;69.11;95075.56;5056397;28;20217;-78
2020/12/22 06:04:18;;;;;;;8.52;5.57;;;4.90;85.20;;;4.04;69.43;95076.25;5050610;28;20227;-78
2020/12/22 06:06:46;;;;;;;7.43;5.53;;;4.90;85.10;;;4.04;69.16;95084.03;5075522;28;20237;-79
2020/12/22 06:09:15;;;;;;;8.05;5.78;;;4.90;85.20;;;4.08;69.21;95093.16;5075872;28;20593;-79
2020/12/22 06:11:44;;;;;;;8.43;5.78;;;4.90;85.30;;;4.10;69.32;95078.25;5076298;28;20191;-78
2020/12/22 06:14:11;;;;;;;9.15;6.35;;;4.90;85.30;;;4.12;69.07;95070.31;5075727;28;20210;-79
2020/12/22 06:16:38;;;;;;;9.60;6.43;;;4.90;85.20;;;4.11;69.28;95073.88;5075223;28;20260;-79
2020/12/22 06:19:07;;;;;;;9.43;6.50;;;4.90;85.20;;;4.14;69.11;95069.19;5059218;28;20215;-78
2020/12/22 06:21:36;;;;;;;9.27;6.20;;;4.90;85.20;;;4.14;69.65;95064.00;5059252;28;20280;-79
2020/12/22 06:24:03;;;;;;;8.43;6.07;;;4.90;85.20;;;4.15;68.99;95063.03;5092170;28;20225;-79
2020/12/22 06:26:29;;;;;;;7.78;5.80;;;5.00;85.20;;;4.16;69.61;95049.09;5059187;28;20213;-79
2020/12/22 06:28:56;;;;;;;8.50;5.88;;;5.00;85.20;;;4.17;69.13;95042.13;5075381;28;20307;-79
2020/12/22 06:31:33;;;;;;;9.25;6.22;;;5.00;85.20;;;4.19;69.21;95050.59;5055380;28;20635;-78
2020/12/22 06:34:00;;;;;;;8.98;6.10;;;5.00;85.20;;;4.19;69.35;95054.94;5058470;28;20696;-78
2020/12/22 06:36:27;;;;;;;8.93;6.20;;;5.00;85.20;;;4.21;69.31;95050.44;5090771;28;20251;-79
2020/12/22 06:38:58;;;;;;;9.13;5.93;;;5.00;85.20;;;4.22;69.22;95050.28;5058510;28;20202;-79
2020/12/22 06:41:45;;;;;;;7.75;6.07;;;5.00;85.30;;;4.23;69.12;95045.91;5064680;28;20590;-79
2020/12/22 06:44:26;;;;;;;8.82;5.95;;;5.10;85.20;;;4.23;69.15;95046.72;5055721;28;20242;-79
2020/12/22 06:46:58;;;;;;;7.60;5.57;;;5.10;85.20;;;4.21;69.07;95033.09;5051684;28;20698;-78
2020/12/22 06:49:54;;;;;;;8.52;6.50;;;5.10;85.20;;;4.23;69.10;95045.91;5088073;28;20215;-79
2020/12/22 06:52:43;;;;;;;7.80;5.47;;;5.10;85.20;;;4.25;69.00;95057.78;5072637;28;20195;-79
2020/12/22 06:55:50;;;;;;;7.80;5.50;;;5.10;85.30;;;4.24;69.40;95058.72;5071197;28;20309;-79
2020/12/22 06:58:42;;;;;;;7.43;5.30;;;5.10;85.30;;;4.28;69.13;95069.63;5083429;28;20297;-79
2020/12/22 07:01:34;;;;;;;9.00;6.25;;;5.10;85.30;;;4.30;69.44;95072.91;5067528;28;20202;-79
2020/12/22 07:04:21;;;;;;;8.07;6.15;;;5.20;85.30;;;4.32;69.16;95066.59;5067718;28;20238;-79
2020/12/22 07:06:47;;;;;;;8.05;5.82;;;5.10;85.30;;;4.36;69.27;95085.31;5083876;28;20187;-78
2020/12/22 07:09:22;;;;;;;7.65;5.53;;;5.10;85.40;;;4.35;69.20;95068.09;5088258;28;20214;-79
2020/12/22 07:11:51;;;;;;;9.90;6.32;;;5.20;85.50;;;4.41;69.53;95056.28;5084546;28;20731;-80
2020/12/22 07:14:23;;;;;;;7.13;5.63;;;5.20;85.50;;;4.44;69.57;95048.19;5076686;28;20245;-79
2020/12/22 07:17:09;;;;;;;6.38;5.30;;;5.20;85.50;;;4.49;69.42;95062.34;5064962;28;20210;-79
2020/12/22 07:19:36;;;;;;;7.63;5.43;;;5.30;85.50;;;4.52;69.27;95052.63;5067456;28;20209;-79
2020/12/22 07:22:05;;;;;;;8.25;6.00;;;5.20;85.40;;;4.55;69.36;95062.72;5086304;28;20708;-80
2020/12/22 07:24:35;;;;;;;12.00;7.78;;;5.30;85.50;;;4.57;69.61;95060.78;5069848;28;20234;-79
2020/12/22 07:27:02;;;;;;;16.30;10.15;;;5.30;85.50;;;4.58;69.22;95070.22;5070875;28;20198;-79
2020/12/22 07:29:28;;;;;;;17.00;11.82;;;5.30;85.40;;;4.60;69.26;95071.69;5072873;28;20229;-79
2020/12/22 07:31:55;;;;;;;16.30;11.98;;;5.30;85.40;;;4.57;68.79;95060.78;5069348;28;20203;-79
2020/12/22 07:34:22;;;;;;;12.85;9.85;;;5.30;85.40;;;4.64;69.45;95057.44;5090796;28;20203;-79
2020/12/22 07:36:49;;;;;;;87.97;25.10;;;5.40;85.50;;;4.56;69.22;95044.38;5073439;28;20225;-79
2020/12/22 07:39:23;;;;;;;202.15;46.95;;;5.40;86.30;;;4.69;69.11;95066.53;5056921;28;20321;-79
2020/12/22 07:41:51;;;;;;;266.98;62.25;;;5.40;85.40;;;4.69;69.18;95069.97;5068367;28;20194;-79
2020/12/22 07:44:21;;;;;;;197.93;53.10;;;5.40;85.50;;;4.69;69.02;95072.56;5089190;28;20250;-79
2020/12/22 07:46:54;;;;;;;99.50;33.67;;;5.50;85.50;;;4.72;69.01;95055.84;5070400;28;20238;-79
2020/12/22 07:49:21;;;;;;;71.25;26.05;;;5.50;85.50;;;4.75;69.38;95058.16;5072330;28;20272;-79
2020/12/22 07:51:49;;;;;;;61.88;23.70;;;5.50;85.60;;;4.81;69.57;95057.56;5071614;28;20245;-79
2020/12/22 07:54:16;;;;;;;46.00;19.83;;;5.50;85.70;;;4.85;69.39;95064.06;5065689;28;20569;-79
2020/12/22 07:56:45;;;;;;;46.85;18.67;;;5.50;85.80;;;4.91;69.68;95066.06;5076292;28;20207;-79
2020/12/22 07:59:15;;;;;;;44.75;17.63;;;5.60;85.80;;;4.95;69.29;95064.78;5054264;28;20219;-79
2020/12/22 08:01:47;;;;;;;45.13;16.90;;;5.70;86.00;;;4.96;69.42;95061.22;5055782;28;20199;-77
2020/12/22 08:04:17;;;;;;;37.72;15.57;;;5.60;85.80;;;4.99;69.04;95057.47;5053680;28;20631;-79
2020/12/22 08:07:01;;;;;;;27.98;12.25;;;5.60;85.70;;;5.04;69.00;95057.88;5070692;28;20195;-79
2020/12/22 08:09:37;;;;;;;20.83;9.38;;;5.70;85.50;;;5.07;69.11;95051.53;5070445;28;21092;-79
2020/12/22 08:12:07;;;;;;;16.33;8.23;;;5.70;85.50;;;5.06;69.22;95048.09;5087479;28;20269;-79
2020/12/22 08:14:39;;;;;;;12.52;7.55;;;5.80;85.70;;;5.10;69.23;95039.03;5074330;28;20231;-79
2020/12/22 08:17:27;;;;;;;8.93;5.70;;;5.80;86.50;;;5.12;69.29;95044.88;5052626;28;20202;-79
2020/12/22 08:19:55;;;;;;;7.85;5.63;;;5.80;85.50;;;5.18;69.30;95040.06;5067972;28;20631;-79
2020/12/22 08:22:23;;;;;;;7.22;5.65;;;5.90;85.70;;;5.23;69.36;95035.19;5085775;28;20257;-78
2020/12/22 08:24:50;;;;;;;7.18;5.47;;;5.90;85.80;;;5.24;69.23;95022.03;5067936;28;20229;-79
2020/12/22 08:27:17;;;;;;;7.63;5.90;;;5.90;85.80;;;5.30;69.35;95023.22;5070609;28;20198;-80
2020/12/22 08:29:44;;;;;;;7.32;5.28;;;6.00;86.60;;;5.32;69.77;95020.44;5066339;28;20239;-80
2020/12/22 08:32:15;;;;;;;6.45;4.97;;;6.00;85.80;;;5.38;69.29;95018.03;5070543;28;20203;-79
2020/12/22 08:34:46;;;;;;;7.80;5.25;;;6.10;86.00;;;5.47;69.36;95026.69;5070336;28;20303;-80
2020/12/22 08:37:13;;;;;;;8.98;4.93;;;6.10;86.10;;;5.55;69.59;95015.50;5046227;28;20225;-80
2020/12/22 08:39:41;;;;;;;8.02;5.03;;;6.10;86.10;;;5.60;68.96;95003.63;5070856;28;20557;-80
2020/12/22 08:42:10;;;;;;;7.88;4.68;;;6.20;86.10;;;5.61;68.85;95001.84;5071154;28;20889;-79
2020/12/22 08:44:47;;;;;;;5.82;4.85;;;6.20;85.80;;;5.58;68.37;94996.97;5069388;28;20321;-79
2020/12/22 08:47:14;;;;;;;6.75;5.18;;;6.30;85.60;;;5.49;68.50;94970.09;5067942;28;20257;-79
2020/12/22 08:49:42;;;;;;;5.45;4.50;;;6.30;85.30;;;5.51;68.42;94986.38;5086538;28;20593;-81
2020/12/22 08:52:20;;;;;;;5.47;4.32;;;6.20;85.10;;;5.47;68.59;94999.84;5072860;28;20202;-81
2020/12/22 08:54:48;;;;;;;5.28;4.25;;;6.30;85.10;;;5.44;68.58;95004.41;5088890;28;20269;-80
2020/12/22 08:57:18;;;;;;;6.38;4.35;;;6.20;85.10;;;5.40;68.70;95012.69;5093375;28;20198;-80
2020/12/22 08:59:47;;;;;;;7.78;4.72;;;6.20;85.20;;;5.46;69.14;95012.06;5069531;28;20271;-80
2020/12/22 09:02:31;;;;;;;6.53;4.07;;;6.20;85.50;;;5.57;69.60;95022.16;5088621;28;20649;-80
2020/12/22 09:05:16;;;;;;;11.60;5.00;;;6.20;85.90;;;5.68;69.64;95015.03;5071881;28;20276;-80
2020/12/22 09:07:43;;;;;;;8.55;5.60;;;6.20;86.40;;;5.83;69.75;95028.25;5086399;28;20287;-80
2020/12/22 09:10:11;;;;;;;7.82;5.35;;;6.30;86.70;;;5.95;69.61;95031.38;5087375;28;20210;-80
2020/12/22 09:12:38;;;;;;;8.65;5.50;;;6.40;86.90;;;6.05;69.53;95037.28;5052571;28;20876;-80
2020/12/22 09:15:08;;;;;;;9.57;6.07;;;6.50;87.00;;;6.13;69.76;95039.06;5068821;28;20211;-81
2020/12/22 09:17:36;;;;;;;9.57;7.05;;;6.60;87.00;;;6.21;69.29;95036.47;5065804;28;20203;-80
2020/12/22 09:20:05;;;;;;;11.48;7.25;;;6.60;86.80;;;6.30;69.42;95034.69;5074923;28;20586;-80
2020/12/22 09:22:33;;;;;;;10.18;7.05;;;6.70;86.90;;;6.36;69.26;95029.66;5070727;28;20232;-81
2020/12/22 09:25:04;;;;;;;9.70;6.60;;;6.80;86.80;;;6.43;69.44;95029.81;5073463;28;20229;-80
2020/12/22 09:27:42;;;;;;;10.00;7.20;;;6.90;86.80;;;6.49;69.00;95031.75;5090435;28;20195;-81
2020/12/22 09:30:15;;;;;;;9.90;6.65;;;7.00;86.60;;;6.54;69.50;95023.44;5068546;28;20231;-80
2020/12/22 09:32:45;;;;;;;10.88;7.03;;;7.00;86.60;;;6.61;69.10;95019.22;5081239;28;20652;-81
2020/12/22 09:35:12;;;;;;;11.85;7.57;;;7.10;86.70;;;6.64;69.42;95016.28;5074180;28;20689;-80
2020/12/22 09:37:39;;;;;;;10.45;7.45;;;7.10;86.60;;;6.66;69.01;95011.69;5050383;28;20209;-81
2020/12/22 09:40:06;;;;;;;12.20;7.75;;;7.20;86.50;;;6.71;69.02;95012.03;5072834;28;20207;-80
2020/12/22 09:42:34;;;;;;;8.10;6.38;;;7.20;86.40;;;6.73;69.04;94999.63;5073921;28;20187;-81
2020/12/22 09:45:01;;;;;;;8.52;6.38;;;7.30;86.30;;;6.77;68.76;94994.13;5064624;28;20224;-80
2020/12/22 09:47:27;;;;;;;9.20;6.45;;;7.30;86.20;;;6.79;69.01;94997.38;5050958;28;20203;-81
2020/12/22 09:49:54;;;;;;;7.93;6.55;;;7.40;86.20;;;6.83;69.14;94991.63;5072019;28;20623;-80
2020/12/22 09:52:21;;;;;;;11.30;6.78;;;7.40;86.20;;;6.88;69.42;94993.75;5074574;28;20252;-81
2020/12/22 09:54:49;;;;;;;8.73;6.40;;;7.40;86.30;;;6.89;68.96;94988.38;5084496;28;20224;-81
2020/12/22 09:57:16;;;;;;;8.82;6.32;;;7.40;86.30;;;6.96;69.30;94992.94;5071839;28;20256;-80
2020/12/22 09:59:43;;;;;;;11.57;6.45;;;7.50;86.20;;;6.98;69.05;94983.97;5053084;28;20226;-79
2020/12/22 10:02:10;;;;;;;9.20;6.30;;;7.50;86.30;;;7.02;69.29;94984.44;5072702;28;20238;-82
2020/12/22 10:04:39;;;;;;;8.20;6.05;;;7.60;86.40;;;7.10;69.26;94983.59;5068133;28;20783;-80
2020/12/22 10:07:06;;;;;;;5.90;4.25;;;7.60;86.40;;;7.13;69.00;94985.84;5069811;28;20588;-79
2020/12/22 10:09:32;;;;;;;4.72;3.38;;;7.70;86.30;;;7.11;68.89;94988.63;5086997;28;20222;-81
2020/12/22 10:12:00;;;;;;;3.95;3.20;;;7.70;86.10;;;7.07;68.21;94987.34;5068996;28;20207;-81
2020/12/22 10:14:26;;;;;;;4.97;3.40;;;7.70;85.70;;;7.02;68.63;94985.25;5077621;28;20219;-81
2020/12/22 10:16:53;;;;;;;3.13;2.80;;;7.70;85.60;;;7.01;68.64;94977.59;5068802;28;20294;-81
2020/12/22 10:19:20;;;;;;;4.97;3.67;;;7.70;85.60;;;7.03;68.89;94973.00;5085319;28;20223;-80
2020/12/22 10:21:47;;;;;;;4.70;3.92;;;7.70;85.70;;;7.11;68.89;94977.41;5059199;28;20589;-80
2020/12/22 10:24:33;;;;;;;48.00;20.77;;;7.70;85.90;;;7.17;69.21;94968.91;5063495;28;20226;-80
2020/12/22 10:26:59;;;;;;;23.45;12.60;;;7.70;86.20;;;7.28;69.51;94972.94;5075010;28;20229;-80
2020/12/22 10:29:26;;;;;;;13.60;7.80;;;7.80;86.60;;;7.41;69.67;94967.16;5075231;28;20276;-80
2020/12/22 10:31:55;;;;;;;8.80;5.80;;;7.80;86.90;;;7.57;69.55;94963.66;5092654;28;20274;-80
2020/12/22 10:34:23;;;;;;;6.78;5.00;;;7.90;87.10;;;7.73;69.94;94966.19;5091520;28;20218;-81
2020/12/22 10:36:54;;;;;;;5.95;3.92;;;8.10;87.40;;;7.85;69.68;94964.00;5075610;28;20205;-80